sensor_id;sensor_type;location;lat;lon;timestamp;P1;durP1;ratioP1;P2;durP2;ratioP2
48993;SDS011;34804;49.214;12.276;2023-07-13T00:00:47;19.90;;;6.38;;
48993;SDS011;34804;49.214;12.276;2023-07-13T00:03:14;15.43;;;5.65;;
48993;SDS011;34804;49.214;12.276;2023-07-13T00:05:42;16.75;;;5.10;;
48993;SDS011;34804;49.214;12.276;2023-07-13T00:08:09;17.65;;;4.90;;
48993;SDS011;34804;49.214;12.276;2023-07-13T00:10:41;15.02;;;5.45;;
48993;SDS011;34804;49.214;12.276;2023-07-13T00:13:08;15.32;;;5.65;;
48993;SDS011;34804;49.214;12.276;2023-07-13T00:15:35;12.95;;;5.65;;
48993;SDS011;34804;49.214;12.276;2023-07-13T00:18:02;12.10;;;5.00;;
48993;SDS011;34804;49.214;12.276;2023-07-13T00:20:30;14.77;;;4.50;;
48993;SDS011;34804;49.214;12.276;2023-07-13T00:22:57;16.08;;;5.07;;
48993;SDS011;34804;49.214;12.276;2023-07-13T00:25:24;21.05;;;6.40;;
48993;SDS011;34804;49.214;12.276;2023-07-13T00:27:54;12.95;;;5.07;;
48993;SDS011;34804;49.214;12.276;2023-07-13T00:30:21;23.88;;;5.20;;
48993;SDS011;34804;49.214;12.276;2023-07-13T00:32:49;18.92;;;5.18;;
48993;SDS011;34804;49.214;12.276;2023-07-13T00:35:30;19.52;;;4.88;;
48993;SDS011;34804;49.214;12.276;2023-07-13T00:37:58;15.95;;;5.15;;
48993;SDS011;34804;49.214;12.276;2023-07-13T00:40:25;19.33;;;5.18;;
48993;SDS011;34804;49.214;12.276;2023-07-13T00:42:52;20.02;;;5.60;;
48993;SDS011;34804;49.214;12.276;2023-07-13T00:47:47;17.25;;;5.07;;
48993;SDS011;34804;49.214;12.276;2023-07-13T00:50:14;14.50;;;5.35;;
48993;SDS011;34804;49.214;12.276;2023-07-13T00:52:45;10.98;;;4.60;;
48993;SDS011;34804;49.214;12.276;2023-07-13T00:55:14;14.43;;;4.78;;
48993;SDS011;34804;49.214;12.276;2023-07-13T00:57:43;15.73;;;4.95;;
48993;SDS011;34804;49.214;12.276;2023-07-13T01:00:10;16.83;;;4.85;;
48993;SDS011;34804;49.214;12.276;2023-07-13T01:02:39;17.80;;;5.18;;
48993;SDS011;34804;49.214;12.276;2023-07-13T01:05:12;12.95;;;4.97;;
48993;SDS011;34804;49.214;12.276;2023-07-13T01:07:41;11.35;;;4.35;;
48993;SDS011;34804;49.214;12.276;2023-07-13T01:10:11;16.02;;;4.82;;
48993;SDS011;34804;49.214;12.276;2023-07-13T01:12:39;14.07;;;4.90;;
48993;SDS011;34804;49.214;12.276;2023-07-13T01:15:33;15.07;;;4.22;;
48993;SDS011;34804;49.214;12.276;2023-07-13T01:18:11;9.95;;;4.32;;
48993;SDS011;34804;49.214;12.276;2023-07-13T01:20:41;13.32;;;4.40;;
48993;SDS011;34804;49.214;12.276;2023-07-13T01:23:15;17.73;;;4.47;;
48993;SDS011;34804;49.214;12.276;2023-07-13T01:25:42;15.00;;;4.80;;
48993;SDS011;34804;49.214;12.276;2023-07-13T01:28:09;15.02;;;4.47;;
48993;SDS011;34804;49.214;12.276;2023-07-13T01:30:36;11.60;;;4.10;;
48993;SDS011;34804;49.214;12.276;2023-07-13T01:33:07;13.95;;;4.30;;
48993;SDS011;34804;49.214;12.276;2023-07-13T01:35:36;11.60;;;3.90;;
48993;SDS011;34804;49.214;12.276;2023-07-13T01:38:03;10.48;;;4.07;;
48993;SDS011;34804;49.214;12.276;2023-07-13T01:40:31;9.52;;;4.20;;
48993;SDS011;34804;49.214;12.276;2023-07-13T01:42:59;10.85;;;4.25;;
48993;SDS011;34804;49.214;12.276;2023-07-13T01:45:26;8.32;;;3.70;;
48993;SDS011;34804;49.214;12.276;2023-07-13T01:47:53;15.63;;;4.97;;
48993;SDS011;34804;49.214;12.276;2023-07-13T01:50:20;16.63;;;4.72;;
48993;SDS011;34804;49.214;12.276;2023-07-13T01:52:49;17.50;;;4.55;;
48993;SDS011;34804;49.214;12.276;2023-07-13T01:55:16;12.65;;;4.25;;
48993;SDS011;34804;49.214;12.276;2023-07-13T01:57:43;21.90;;;4.82;;
48993;SDS011;34804;49.214;12.276;2023-07-13T02:00:11;14.43;;;4.07;;
48993;SDS011;34804;49.214;12.276;2023-07-13T02:02:39;12.20;;;4.53;;
48993;SDS011;34804;49.214;12.276;2023-07-13T02:05:11;14.10;;;4.45;;
48993;SDS011;34804;49.214;12.276;2023-07-13T02:07:39;12.27;;;4.50;;
48993;SDS011;34804;49.214;12.276;2023-07-13T02:10:07;14.55;;;4.63;;
48993;SDS011;34804;49.214;12.276;2023-07-13T02:12:35;11.48;;;4.43;;
48993;SDS011;34804;49.214;12.276;2023-07-13T02:15:03;16.63;;;4.65;;
48993;SDS011;34804;49.214;12.276;2023-07-13T02:17:32;14.02;;;4.43;;
48993;SDS011;34804;49.214;12.276;2023-07-13T02:20:00;17.67;;;5.07;;
48993;SDS011;34804;49.214;12.276;2023-07-13T02:22:30;15.93;;;4.28;;
48993;SDS011;34804;49.214;12.276;2023-07-13T02:24:57;13.77;;;4.43;;
48993;SDS011;34804;49.214;12.276;2023-07-13T02:27:24;15.55;;;4.70;;
48993;SDS011;34804;49.214;12.276;2023-07-13T02:29:52;19.95;;;4.65;;
48993;SDS011;34804;49.214;12.276;2023-07-13T02:32:19;20.75;;;5.25;;
48993;SDS011;34804;49.214;12.276;2023-07-13T02:34:46;10.85;;;4.13;;
48993;SDS011;34804;49.214;12.276;2023-07-13T02:37:13;13.82;;;4.50;;
48993;SDS011;34804;49.214;12.276;2023-07-13T02:39:41;12.55;;;4.88;;
48993;SDS011;34804;49.214;12.276;2023-07-13T02:42:08;16.35;;;4.70;;
48993;SDS011;34804;49.214;12.276;2023-07-13T02:44:34;15.85;;;4.57;;
48993;SDS011;34804;49.214;12.276;2023-07-13T02:47:02;14.85;;;4.32;;
48993;SDS011;34804;49.214;12.276;2023-07-13T02:49:28;15.23;;;4.45;;
48993;SDS011;34804;49.214;12.276;2023-07-13T02:51:56;16.45;;;4.75;;
48993;SDS011;34804;49.214;12.276;2023-07-13T02:54:22;18.23;;;4.68;;
48993;SDS011;34804;49.214;12.276;2023-07-13T02:56:49;19.83;;;5.35;;
48993;SDS011;34804;49.214;12.276;2023-07-13T02:59:16;20.23;;;5.43;;
48993;SDS011;34804;49.214;12.276;2023-07-13T03:01:43;12.63;;;4.72;;
48993;SDS011;34804;49.214;12.276;2023-07-13T03:04:10;16.45;;;5.63;;
48993;SDS011;34804;49.214;12.276;2023-07-13T03:06:38;15.50;;;5.10;;
48993;SDS011;34804;49.214;12.276;2023-07-13T03:09:05;12.82;;;4.97;;
48993;SDS011;34804;49.214;12.276;2023-07-13T03:11:32;15.13;;;5.05;;
48993;SDS011;34804;49.214;12.276;2023-07-13T03:13:59;16.17;;;5.13;;
48993;SDS011;34804;49.214;12.276;2023-07-13T03:16:26;15.70;;;4.97;;
48993;SDS011;34804;49.214;12.276;2023-07-13T03:18:53;12.68;;;4.90;;
48993;SDS011;34804;49.214;12.276;2023-07-13T03:21:20;12.07;;;5.30;;
48993;SDS011;34804;49.214;12.276;2023-07-13T03:23:47;18.05;;;4.97;;
48993;SDS011;34804;49.214;12.276;2023-07-13T03:26:15;19.98;;;5.03;;
48993;SDS011;34804;49.214;12.276;2023-07-13T03:28:44;16.02;;;5.20;;
48993;SDS011;34804;49.214;12.276;2023-07-13T03:31:13;17.23;;;5.80;;
48993;SDS011;34804;49.214;12.276;2023-07-13T03:33:45;18.23;;;6.10;;
48993;SDS011;34804;49.214;12.276;2023-07-13T03:36:14;15.82;;;6.40;;
48993;SDS011;34804;49.214;12.276;2023-07-13T03:38:47;16.58;;;5.90;;
48993;SDS011;34804;49.214;12.276;2023-07-13T03:41:20;15.27;;;5.63;;
48993;SDS011;34804;49.214;12.276;2023-07-13T03:43:47;16.73;;;6.03;;
48993;SDS011;34804;49.214;12.276;2023-07-13T03:46:15;19.58;;;5.63;;
48993;SDS011;34804;49.214;12.276;2023-07-13T03:48:43;19.42;;;5.82;;
48993;SDS011;34804;49.214;12.276;2023-07-13T03:51:12;17.60;;;5.90;;
48993;SDS011;34804;49.214;12.276;2023-07-13T03:53:41;17.70;;;5.95;;
48993;SDS011;34804;49.214;12.276;2023-07-13T03:56:09;15.50;;;5.75;;
48993;SDS011;34804;49.214;12.276;2023-07-13T03:58:38;17.10;;;5.63;;
48993;SDS011;34804;49.214;12.276;2023-07-13T04:01:07;15.18;;;5.82;;
48993;SDS011;34804;49.214;12.276;2023-07-13T04:03:35;11.48;;;5.28;;
48993;SDS011;34804;49.214;12.276;2023-07-13T04:06:05;12.10;;;5.80;;
48993;SDS011;34804;49.214;12.276;2023-07-13T04:08:34;14.70;;;5.82;;
48993;SDS011;34804;49.214;12.276;2023-07-13T04:11:04;15.65;;;5.18;;
48993;SDS011;34804;49.214;12.276;2023-07-13T04:13:32;16.20;;;5.82;;
48993;SDS011;34804;49.214;12.276;2023-07-13T04:16:00;13.32;;;5.65;;
48993;SDS011;34804;49.214;12.276;2023-07-13T04:18:27;12.70;;;5.38;;
48993;SDS011;34804;49.214;12.276;2023-07-13T04:20:54;16.38;;;5.65;;
48993;SDS011;34804;49.214;12.276;2023-07-13T04:23:22;13.73;;;5.45;;
48993;SDS011;34804;49.214;12.276;2023-07-13T04:25:51;11.27;;;5.05;;
48993;SDS011;34804;49.214;12.276;2023-07-13T04:28:20;12.70;;;4.80;;
48993;SDS011;34804;49.214;12.276;2023-07-13T04:30:50;19.88;;;5.90;;
48993;SDS011;34804;49.214;12.276;2023-07-13T04:33:17;12.98;;;5.25;;
48993;SDS011;34804;49.214;12.276;2023-07-13T04:35:52;14.07;;;5.57;;
48993;SDS011;34804;49.214;12.276;2023-07-13T04:38:23;22.25;;;5.68;;
48993;SDS011;34804;49.214;12.276;2023-07-13T04:40:51;12.15;;;5.43;;
48993;SDS011;34804;49.214;12.276;2023-07-13T04:43:18;19.55;;;5.25;;
48993;SDS011;34804;49.214;12.276;2023-07-13T04:45:45;9.95;;;4.93;;
48993;SDS011;34804;49.214;12.276;2023-07-13T04:48:12;10.75;;;5.45;;
48993;SDS011;34804;49.214;12.276;2023-07-13T04:50:39;10.55;;;5.30;;
48993;SDS011;34804;49.214;12.276;2023-07-13T04:53:07;12.18;;;5.07;;
48993;SDS011;34804;49.214;12.276;2023-07-13T04:55:34;10.93;;;4.50;;
48993;SDS011;34804;49.214;12.276;2023-07-13T04:58:01;11.38;;;4.47;;
48993;SDS011;34804;49.214;12.276;2023-07-13T05:00:29;10.90;;;4.70;;
48993;SDS011;34804;49.214;12.276;2023-07-13T05:02:57;10.35;;;4.60;;
48993;SDS011;34804;49.214;12.276;2023-07-13T05:05:25;7.45;;;4.25;;
48993;SDS011;34804;49.214;12.276;2023-07-13T05:07:53;12.18;;;4.75;;
48993;SDS011;34804;49.214;12.276;2023-07-13T05:10:20;14.73;;;4.38;;
48993;SDS011;34804;49.214;12.276;2023-07-13T05:12:48;9.23;;;4.45;;
48993;SDS011;34804;49.214;12.276;2023-07-13T05:15:15;9.60;;;4.07;;
48993;SDS011;34804;49.214;12.276;2023-07-13T05:17:42;13.35;;;4.18;;
48993;SDS011;34804;49.214;12.276;2023-07-13T05:20:09;6.80;;;2.83;;
48993;SDS011;34804;49.214;12.276;2023-07-13T05:22:36;14.18;;;3.53;;
48993;SDS011;34804;49.214;12.276;2023-07-13T05:25:06;9.52;;;3.00;;
48993;SDS011;34804;49.214;12.276;2023-07-13T05:27:34;6.82;;;3.03;;
48993;SDS011;34804;49.214;12.276;2023-07-13T05:30:02;11.98;;;3.30;;
48993;SDS011;34804;49.214;12.276;2023-07-13T05:32:30;9.15;;;3.20;;
48993;SDS011;34804;49.214;12.276;2023-07-13T05:34:57;9.38;;;3.17;;
48993;SDS011;34804;49.214;12.276;2023-07-13T05:37:24;7.45;;;3.03;;
48993;SDS011;34804;49.214;12.276;2023-07-13T05:39:51;11.15;;;3.20;;
48993;SDS011;34804;49.214;12.276;2023-07-13T05:42:17;10.23;;;3.38;;
48993;SDS011;34804;49.214;12.276;2023-07-13T05:44:45;8.05;;;2.75;;
48993;SDS011;34804;49.214;12.276;2023-07-13T05:47:12;9.63;;;2.80;;
48993;SDS011;34804;49.214;12.276;2023-07-13T05:49:41;7.65;;;3.20;;
48993;SDS011;34804;49.214;12.276;2023-07-13T05:52:08;6.70;;;2.47;;
48993;SDS011;34804;49.214;12.276;2023-07-13T05:54:35;8.27;;;2.47;;
48993;SDS011;34804;49.214;12.276;2023-07-13T05:57:02;9.90;;;2.70;;
48993;SDS011;34804;49.214;12.276;2023-07-13T05:59:29;9.32;;;2.83;;
48993;SDS011;34804;49.214;12.276;2023-07-13T06:01:56;13.52;;;2.78;;
48993;SDS011;34804;49.214;12.276;2023-07-13T06:04:23;9.93;;;2.53;;
48993;SDS011;34804;49.214;12.276;2023-07-13T06:06:50;5.78;;;2.83;;
48993;SDS011;34804;49.214;12.276;2023-07-13T06:09:17;5.03;;;1.90;;
48993;SDS011;34804;49.214;12.276;2023-07-13T06:11:44;5.65;;;2.30;;
48993;SDS011;34804;49.214;12.276;2023-07-13T06:14:11;5.95;;;2.15;;
48993;SDS011;34804;49.214;12.276;2023-07-13T06:16:39;7.05;;;2.38;;
48993;SDS011;34804;49.214;12.276;2023-07-13T06:19:08;6.05;;;2.40;;
48993;SDS011;34804;49.214;12.276;2023-07-13T06:21:35;6.82;;;2.75;;
48993;SDS011;34804;49.214;12.276;2023-07-13T06:24:02;8.70;;;2.90;;
48993;SDS011;34804;49.214;12.276;2023-07-13T06:26:29;7.03;;;2.53;;
48993;SDS011;34804;49.214;12.276;2023-07-13T06:28:57;6.55;;;2.42;;
48993;SDS011;34804;49.214;12.276;2023-07-13T06:31:24;7.00;;;2.45;;
48993;SDS011;34804;49.214;12.276;2023-07-13T06:33:51;6.25;;;2.30;;
48993;SDS011;34804;49.214;12.276;2023-07-13T06:36:18;7.80;;;2.45;;
48993;SDS011;34804;49.214;12.276;2023-07-13T06:38:45;10.00;;;2.28;;
48993;SDS011;34804;49.214;12.276;2023-07-13T06:41:12;7.75;;;2.53;;
48993;SDS011;34804;49.214;12.276;2023-07-13T06:43:39;6.68;;;2.38;;
48993;SDS011;34804;49.214;12.276;2023-07-13T06:46:06;5.15;;;2.30;;
48993;SDS011;34804;49.214;12.276;2023-07-13T06:48:33;6.75;;;2.10;;
48993;SDS011;34804;49.214;12.276;2023-07-13T06:51:01;5.95;;;2.20;;
48993;SDS011;34804;49.214;12.276;2023-07-13T06:53:28;8.05;;;2.70;;
48993;SDS011;34804;49.214;12.276;2023-07-13T06:55:55;6.57;;;2.58;;
48993;SDS011;34804;49.214;12.276;2023-07-13T06:58:22;5.05;;;2.28;;
48993;SDS011;34804;49.214;12.276;2023-07-13T07:00:52;6.78;;;2.10;;
48993;SDS011;34804;49.214;12.276;2023-07-13T07:03:19;5.45;;;2.45;;
48993;SDS011;34804;49.214;12.276;2023-07-13T07:05:46;5.88;;;2.22;;
48993;SDS011;34804;49.214;12.276;2023-07-13T07:08:13;8.20;;;2.15;;
48993;SDS011;34804;49.214;12.276;2023-07-13T07:10:41;6.32;;;2.40;;
48993;SDS011;34804;49.214;12.276;2023-07-13T07:13:08;6.35;;;2.30;;
48993;SDS011;34804;49.214;12.276;2023-07-13T07:15:36;6.75;;;2.28;;
48993;SDS011;34804;49.214;12.276;2023-07-13T07:18:03;6.45;;;2.35;;
48993;SDS011;34804;49.214;12.276;2023-07-13T07:20:30;6.82;;;2.10;;
48993;SDS011;34804;49.214;12.276;2023-07-13T07:22:59;9.02;;;1.90;;
48993;SDS011;34804;49.214;12.276;2023-07-13T07:25:26;6.80;;;2.25;;
48993;SDS011;34804;49.214;12.276;2023-07-13T07:27:53;10.07;;;2.47;;
48993;SDS011;34804;49.214;12.276;2023-07-13T07:30:23;5.70;;;2.55;;
48993;SDS011;34804;49.214;12.276;2023-07-13T07:32:53;9.60;;;2.33;;
48993;SDS011;34804;49.214;12.276;2023-07-13T07:35:23;4.68;;;2.10;;
48993;SDS011;34804;49.214;12.276;2023-07-13T07:37:50;8.30;;;2.30;;
48993;SDS011;34804;49.214;12.276;2023-07-13T07:40:17;6.38;;;2.10;;
48993;SDS011;34804;49.214;12.276;2023-07-13T07:42:48;4.03;;;1.80;;
48993;SDS011;34804;49.214;12.276;2023-07-13T07:45:15;12.57;;;2.63;;
48993;SDS011;34804;49.214;12.276;2023-07-13T07:47:41;4.85;;;1.92;;
48993;SDS011;34804;49.214;12.276;2023-07-13T07:50:09;14.15;;;2.72;;
48993;SDS011;34804;49.214;12.276;2023-07-13T07:52:36;6.63;;;2.25;;
48993;SDS011;34804;49.214;12.276;2023-07-13T07:55:05;4.35;;;2.03;;
48993;SDS011;34804;49.214;12.276;2023-07-13T07:57:35;8.30;;;2.40;;
48993;SDS011;34804;49.214;12.276;2023-07-13T08:00:09;7.93;;;2.03;;
48993;SDS011;34804;49.214;12.276;2023-07-13T08:02:39;8.10;;;1.90;;
48993;SDS011;34804;49.214;12.276;2023-07-13T08:05:27;5.90;;;1.88;;
48993;SDS011;34804;49.214;12.276;2023-07-13T08:07:58;6.45;;;1.90;;
48993;SDS011;34804;49.214;12.276;2023-07-13T08:10:25;4.82;;;1.63;;
48993;SDS011;34804;49.214;12.276;2023-07-13T08:12:52;4.57;;;2.00;;
48993;SDS011;34804;49.214;12.276;2023-07-13T08:15:22;6.43;;;1.88;;
48993;SDS011;34804;49.214;12.276;2023-07-13T08:17:49;3.97;;;1.42;;
48993;SDS011;34804;49.214;12.276;2023-07-13T08:20:17;5.63;;;1.92;;
48993;SDS011;34804;49.214;12.276;2023-07-13T08:22:45;5.57;;;1.50;;
48993;SDS011;34804;49.214;12.276;2023-07-13T08:25:12;8.13;;;1.67;;
48993;SDS011;34804;49.214;12.276;2023-07-13T08:27:39;4.18;;;1.67;;
48993;SDS011;34804;49.214;12.276;2023-07-13T08:30:07;7.88;;;1.70;;
48993;SDS011;34804;49.214;12.276;2023-07-13T08:32:36;3.78;;;1.30;;
48993;SDS011;34804;49.214;12.276;2023-07-13T08:35:04;10.57;;;1.40;;
48993;SDS011;34804;49.214;12.276;2023-07-13T08:37:31;4.68;;;1.30;;
48993;SDS011;34804;49.214;12.276;2023-07-13T08:39:58;4.60;;;1.60;;
48993;SDS011;34804;49.214;12.276;2023-07-13T08:42:37;3.83;;;1.42;;
48993;SDS011;34804;49.214;12.276;2023-07-13T08:47:47;10.93;;;1.77;;
48993;SDS011;34804;49.214;12.276;2023-07-13T08:50:21;8.60;;;1.63;;
48993;SDS011;34804;49.214;12.276;2023-07-13T08:52:53;10.07;;;1.73;;
48993;SDS011;34804;49.214;12.276;2023-07-13T08:55:24;5.03;;;1.60;;
48993;SDS011;34804;49.214;12.276;2023-07-13T08:58:28;6.53;;;1.20;;
48993;SDS011;34804;49.214;12.276;2023-07-13T09:00:51;4.05;;;1.38;;
48993;SDS011;34804;49.214;12.276;2023-07-13T09:03:37;3.53;;;1.20;;
48993;SDS011;34804;49.214;12.276;2023-07-13T09:06:20;6.97;;;1.50;;
48993;SDS011;34804;49.214;12.276;2023-07-13T09:16:52;3.38;;;1.50;;
48993;SDS011;34804;49.214;12.276;2023-07-13T09:19:23;3.47;;;1.40;;
48993;SDS011;34804;49.214;12.276;2023-07-13T09:21:55;4.97;;;1.40;;
48993;SDS011;34804;49.214;12.276;2023-07-13T09:27:26;8.88;;;1.80;;
48993;SDS011;34804;49.214;12.276;2023-07-13T09:32:28;3.97;;;1.15;;
48993;SDS011;34804;49.214;12.276;2023-07-13T09:34:56;4.63;;;1.33;;
48993;SDS011;34804;49.214;12.276;2023-07-13T09:37:27;3.22;;;1.20;;
48993;SDS011;34804;49.214;12.276;2023-07-13T09:39:59;6.10;;;1.30;;
48993;SDS011;34804;49.214;12.276;2023-07-13T09:42:31;2.42;;;1.00;;
48993;SDS011;34804;49.214;12.276;2023-07-13T09:45:00;6.38;;;1.83;;
48993;SDS011;34804;49.214;12.276;2023-07-13T09:47:37;4.95;;;1.30;;
48993;SDS011;34804;49.214;12.276;2023-07-13T09:50:09;4.90;;;1.40;;
48993;SDS011;34804;49.214;12.276;2023-07-13T09:52:42;5.20;;;1.20;;
48993;SDS011;34804;49.214;12.276;2023-07-13T09:58:10;5.88;;;1.30;;
48993;SDS011;34804;49.214;12.276;2023-07-13T10:00:43;6.22;;;1.48;;
48993;SDS011;34804;49.214;12.276;2023-07-13T10:03:20;8.23;;;1.60;;
48993;SDS011;34804;49.214;12.276;2023-07-13T10:05:58;8.52;;;1.67;;
48993;SDS011;34804;49.214;12.276;2023-07-13T10:08:31;4.03;;;1.27;;
48993;SDS011;34804;49.214;12.276;2023-07-13T10:11:12;4.28;;;1.20;;
48993;SDS011;34804;49.214;12.276;2023-07-13T10:13:56;5.25;;;1.48;;
48993;SDS011;34804;49.214;12.276;2023-07-13T10:16:31;5.22;;;1.45;;
48993;SDS011;34804;49.214;12.276;2023-07-13T10:19:11;4.75;;;1.25;;
48993;SDS011;34804;49.214;12.276;2023-07-13T10:21:43;3.90;;;1.30;;
48993;SDS011;34804;49.214;12.276;2023-07-13T10:24:22;4.50;;;1.30;;
48993;SDS011;34804;49.214;12.276;2023-07-13T10:27:10;3.95;;;1.30;;
48993;SDS011;34804;49.214;12.276;2023-07-13T10:29:57;5.05;;;1.50;;
48993;SDS011;34804;49.214;12.276;2023-07-13T10:32:42;4.20;;;1.20;;
48993;SDS011;34804;49.214;12.276;2023-07-13T10:35:12;4.78;;;1.48;;
48993;SDS011;34804;49.214;12.276;2023-07-13T10:43:04;4.47;;;1.30;;
48993;SDS011;34804;49.214;12.276;2023-07-13T10:45:45;6.00;;;1.40;;
48993;SDS011;34804;49.214;12.276;2023-07-13T10:48:16;4.82;;;1.33;;
48993;SDS011;34804;49.214;12.276;2023-07-13T10:50:46;6.40;;;1.65;;
48993;SDS011;34804;49.214;12.276;2023-07-13T10:53:17;3.75;;;1.27;;
48993;SDS011;34804;49.214;12.276;2023-07-13T10:58:24;3.17;;;1.35;;
48993;SDS011;34804;49.214;12.276;2023-07-13T11:03:33;5.72;;;1.40;;
48993;SDS011;34804;49.214;12.276;2023-07-13T11:06:10;5.45;;;1.55;;
48993;SDS011;34804;49.214;12.276;2023-07-13T11:21:30;5.30;;;1.73;;
48993;SDS011;34804;49.214;12.276;2023-07-13T11:24:02;4.70;;;1.20;;
48993;SDS011;34804;49.214;12.276;2023-07-13T11:26:44;6.88;;;1.48;;
48993;SDS011;34804;49.214;12.276;2023-07-13T11:31:52;5.15;;;1.30;;
48993;SDS011;34804;49.214;12.276;2023-07-13T11:34:24;5.28;;;1.42;;
48993;SDS011;34804;49.214;12.276;2023-07-13T11:36:57;4.40;;;1.20;;
48993;SDS011;34804;49.214;12.276;2023-07-13T11:42:01;5.22;;;1.20;;
48993;SDS011;34804;49.214;12.276;2023-07-13T11:44:32;3.55;;;1.05;;
48993;SDS011;34804;49.214;12.276;2023-07-13T11:47:25;4.30;;;1.27;;
48993;SDS011;34804;49.214;12.276;2023-07-13T11:49:53;5.45;;;1.10;;
48993;SDS011;34804;49.214;12.276;2023-07-13T11:52:23;7.32;;;1.30;;
48993;SDS011;34804;49.214;12.276;2023-07-13T11:55:01;3.63;;;1.20;;
48993;SDS011;34804;49.214;12.276;2023-07-13T11:57:31;9.50;;;1.20;;
48993;SDS011;34804;49.214;12.276;2023-07-13T12:00:02;4.10;;;1.17;;
48993;SDS011;34804;49.214;12.276;2023-07-13T12:02:39;3.67;;;1.13;;
48993;SDS011;34804;49.214;12.276;2023-07-13T12:05:10;4.65;;;1.23;;
48993;SDS011;34804;49.214;12.276;2023-07-13T12:07:39;4.55;;;1.48;;
48993;SDS011;34804;49.214;12.276;2023-07-13T12:10:17;3.20;;;1.10;;
48993;SDS011;34804;49.214;12.276;2023-07-13T12:15:23;2.63;;;1.20;;
48993;SDS011;34804;49.214;12.276;2023-07-13T12:17:55;3.63;;;0.88;;
48993;SDS011;34804;49.214;12.276;2023-07-13T12:20:24;4.70;;;1.13;;
48993;SDS011;34804;49.214;12.276;2023-07-13T12:22:54;5.25;;;1.25;;
48993;SDS011;34804;49.214;12.276;2023-07-13T12:25:21;3.33;;;1.25;;
48993;SDS011;34804;49.214;12.276;2023-07-13T12:27:49;4.63;;;1.10;;
48993;SDS011;34804;49.214;12.276;2023-07-13T12:30:26;3.55;;;1.30;;
48993;SDS011;34804;49.214;12.276;2023-07-13T12:33:01;3.08;;;1.20;;
48993;SDS011;34804;49.214;12.276;2023-07-13T12:35:44;5.93;;;1.30;;
48993;SDS011;34804;49.214;12.276;2023-07-13T12:38:14;2.78;;;1.13;;
48993;SDS011;34804;49.214;12.276;2023-07-13T12:40:43;3.42;;;1.30;;
48993;SDS011;34804;49.214;12.276;2023-07-13T12:43:11;4.35;;;1.10;;
48993;SDS011;34804;49.214;12.276;2023-07-13T12:46:00;4.57;;;1.08;;
48993;SDS011;34804;49.214;12.276;2023-07-13T12:48:37;3.50;;;1.20;;
48993;SDS011;34804;49.214;12.276;2023-07-13T12:51:16;3.30;;;1.05;;
48993;SDS011;34804;49.214;12.276;2023-07-13T12:53:47;3.90;;;1.15;;
48993;SDS011;34804;49.214;12.276;2023-07-13T12:56:26;4.10;;;1.20;;
48993;SDS011;34804;49.214;12.276;2023-07-13T12:58:57;4.38;;;1.05;;
48993;SDS011;34804;49.214;12.276;2023-07-13T13:01:28;3.40;;;1.30;;
48993;SDS011;34804;49.214;12.276;2023-07-13T13:04:01;5.03;;;1.10;;
48993;SDS011;34804;49.214;12.276;2023-07-13T13:06:33;5.10;;;1.00;;
48993;SDS011;34804;49.214;12.276;2023-07-13T13:09:03;3.20;;;1.20;;
48993;SDS011;34804;49.214;12.276;2023-07-13T13:11:38;4.43;;;1.25;;
48993;SDS011;34804;49.214;12.276;2023-07-13T13:14:06;3.65;;;1.13;;
48993;SDS011;34804;49.214;12.276;2023-07-13T13:16:35;3.35;;;1.05;;
48993;SDS011;34804;49.214;12.276;2023-07-13T13:19:16;4.60;;;1.00;;
48993;SDS011;34804;49.214;12.276;2023-07-13T13:21:45;5.70;;;1.20;;
48993;SDS011;34804;49.214;12.276;2023-07-13T13:24:13;4.18;;;1.33;;
48993;SDS011;34804;49.214;12.276;2023-07-13T13:26:42;3.63;;;1.55;;
48993;SDS011;34804;49.214;12.276;2023-07-13T13:29:16;6.97;;;1.48;;
48993;SDS011;34804;49.214;12.276;2023-07-13T13:31:46;4.70;;;1.00;;
48993;SDS011;34804;49.214;12.276;2023-07-13T13:34:14;4.22;;;1.40;;
48993;SDS011;34804;49.214;12.276;2023-07-13T13:36:43;3.90;;;1.23;;
48993;SDS011;34804;49.214;12.276;2023-07-13T13:39:21;4.40;;;1.30;;
48993;SDS011;34804;49.214;12.276;2023-07-13T13:41:54;4.65;;;1.52;;
48993;SDS011;34804;49.214;12.276;2023-07-13T13:44:21;4.10;;;1.20;;
48993;SDS011;34804;49.214;12.276;2023-07-13T13:46:52;3.42;;;1.30;;
48993;SDS011;34804;49.214;12.276;2023-07-13T13:49:22;4.70;;;1.20;;
48993;SDS011;34804;49.214;12.276;2023-07-13T13:51:51;7.43;;;1.25;;
48993;SDS011;34804;49.214;12.276;2023-07-13T13:54:20;10.73;;;1.70;;
48993;SDS011;34804;49.214;12.276;2023-07-13T13:56:50;4.10;;;1.10;;
48993;SDS011;34804;49.214;12.276;2023-07-13T13:59:17;5.43;;;1.38;;
48993;SDS011;34804;49.214;12.276;2023-07-13T14:01:45;4.53;;;1.10;;
48993;SDS011;34804;49.214;12.276;2023-07-13T14:04:18;5.87;;;1.43;;
48993;SDS011;34804;49.214;12.276;2023-07-13T14:06:48;3.80;;;1.00;;
48993;SDS011;34804;49.214;12.276;2023-07-13T14:09:17;3.55;;;1.27;;
48993;SDS011;34804;49.214;12.276;2023-07-13T14:11:46;6.57;;;1.33;;
48993;SDS011;34804;49.214;12.276;2023-07-13T14:14:18;2.60;;;1.05;;
48993;SDS011;34804;49.214;12.276;2023-07-13T14:16:50;3.33;;;1.08;;
48993;SDS011;34804;49.214;12.276;2023-07-13T14:19:20;4.85;;;1.30;;
48993;SDS011;34804;49.214;12.276;2023-07-13T14:21:48;4.18;;;1.02;;
48993;SDS011;34804;49.214;12.276;2023-07-13T14:24:16;4.28;;;1.23;;
48993;SDS011;34804;49.214;12.276;2023-07-13T14:26:45;7.38;;;1.30;;
48993;SDS011;34804;49.214;12.276;2023-07-13T14:29:13;5.75;;;1.20;;
48993;SDS011;34804;49.214;12.276;2023-07-13T14:31:47;3.33;;;1.30;;
48993;SDS011;34804;49.214;12.276;2023-07-13T14:34:14;2.47;;;0.90;;
48993;SDS011;34804;49.214;12.276;2023-07-13T14:36:42;7.00;;;1.33;;
48993;SDS011;34804;49.214;12.276;2023-07-13T14:39:12;5.32;;;1.30;;
48993;SDS011;34804;49.214;12.276;2023-07-13T14:41:39;3.30;;;1.00;;
48993;SDS011;34804;49.214;12.276;2023-07-13T14:44:13;6.30;;;1.45;;
48993;SDS011;34804;49.214;12.276;2023-07-13T14:46:42;3.42;;;1.20;;
48993;SDS011;34804;49.214;12.276;2023-07-13T14:49:15;4.82;;;1.23;;
48993;SDS011;34804;49.214;12.276;2023-07-13T14:52:27;6.20;;;1.20;;
48993;SDS011;34804;49.214;12.276;2023-07-13T14:54:54;3.25;;;1.25;;
48993;SDS011;34804;49.214;12.276;2023-07-13T14:57:22;5.43;;;1.35;;
48993;SDS011;34804;49.214;12.276;2023-07-13T14:59:48;6.38;;;1.60;;
48993;SDS011;34804;49.214;12.276;2023-07-13T15:02:27;5.25;;;1.10;;
48993;SDS011;34804;49.214;12.276;2023-07-13T15:04:57;3.78;;;1.40;;
48993;SDS011;34804;49.214;12.276;2023-07-13T15:07:24;4.47;;;1.30;;
48993;SDS011;34804;49.214;12.276;2023-07-13T15:09:51;3.70;;;1.10;;
48993;SDS011;34804;49.214;12.276;2023-07-13T15:12:19;3.55;;;1.38;;
48993;SDS011;34804;49.214;12.276;2023-07-13T15:14:46;4.95;;;1.35;;
48993;SDS011;34804;49.214;12.276;2023-07-13T15:17:27;3.90;;;1.20;;
48993;SDS011;34804;49.214;12.276;2023-07-13T15:20:12;4.70;;;1.27;;
48993;SDS011;34804;49.214;12.276;2023-07-13T15:22:50;5.00;;;1.30;;
48993;SDS011;34804;49.214;12.276;2023-07-13T15:25:22;3.42;;;1.20;;
48993;SDS011;34804;49.214;12.276;2023-07-13T15:27:54;3.58;;;1.10;;
48993;SDS011;34804;49.214;12.276;2023-07-13T15:30:25;4.00;;;1.50;;
48993;SDS011;34804;49.214;12.276;2023-07-13T15:32:56;6.63;;;1.63;;
48993;SDS011;34804;49.214;12.276;2023-07-13T15:35:27;4.75;;;1.30;;
48993;SDS011;34804;49.214;12.276;2023-07-13T15:37:54;4.35;;;1.17;;